sensor_id;sensor_type;location;lat;lon;timestamp;P1;durP1;ratioP1;P2;durP2;ratioP2
15557;SDS011;7880;50.110;9.372;2023-02-22T00:00:42;13.769230769230765;;;7.3769230769230765;;
15557;SDS011;7880;50.110;9.372;2023-02-22T00:05:39;16.0;;;7.83846153846154;;
15557;SDS011;7880;50.110;9.372;2023-02-22T00:10:44;17.56153846153846;;;8.299999999999999;;
15557;SDS011;7880;50.110;9.372;2023-02-22T00:15:50;20.307692307692314;;;10.23846153846154;;
15557;SDS011;7880;50.110;9.372;2023-02-22T00:20:59;19.13076923076923;;;9.923076923076923;;
15557;SDS011;7880;50.110;9.372;2023-02-22T00:26:01;18.892307692307693;;;9.72307692307692;;
15557;SDS011;7880;50.110;9.372;2023-02-22T00:31:06;16.761538461538457;;;8.861538461538462;;
15557;SDS011;7880;50.110;9.372;2023-02-22T00:36:11;22.092307692307692;;;9.946153846153845;;
15557;SDS011;7880;50.110;9.372;2023-02-22T00:41:29;15.876923076923076;;;8.515384615384617;;
15557;SDS011;7880;50.110;9.372;2023-02-22T00:46:37;22.476923076923086;;;10.200000000000001;;
15557;SDS011;7880;50.110;9.372;2023-02-22T00:51:41;16.292307692307688;;;8.415384615384612;;
15557;SDS011;7880;50.110;9.372;2023-02-22T00:57:00;17.084615384615383;;;8.36153846153846;;
15557;SDS011;7880;50.110;9.372;2023-02-22T01:02:06;18.26153846153846;;;9.238461538461541;;
15557;SDS011;7880;50.110;9.372;2023-02-22T01:07:09;13.315384615384618;;;6.869230769230768;;
15557;SDS011;7880;50.110;9.372;2023-02-22T01:12:15;16.94615384615384;;;8.16153846153846;;
15557;SDS011;7880;50.110;9.372;2023-02-22T01:17:18;14.446153846153841;;;8.061538461538461;;
15557;SDS011;7880;50.110;9.372;2023-02-22T01:22:22;14.538461538461537;;;8.22307692307692;;
15557;SDS011;7880;50.110;9.372;2023-02-22T01:32:43;14.03076923076923;;;7.761538461538462;;
15557;SDS011;7880;50.110;9.372;2023-02-22T01:37:46;13.123076923076924;;;7.0;;
15557;SDS011;7880;50.110;9.372;2023-02-22T01:42:51;11.430769230769235;;;6.8769230769230765;;
15557;SDS011;7880;50.110;9.372;2023-02-22T01:47:56;9.823076923076924;;;6.0;;
15557;SDS011;7880;50.110;9.372;2023-02-22T01:52:59;12.12307692307692;;;6.1;;
15557;SDS011;7880;50.110;9.372;2023-02-22T01:58:03;11.53076923076923;;;6.638461538461541;;
15557;SDS011;7880;50.110;9.372;2023-02-22T02:03:08;11.900000000000004;;;6.438461538461538;;
15557;SDS011;7880;50.110;9.372;2023-02-22T02:08:16;10.43846153846154;;;6.276923076923079;;
15557;SDS011;7880;50.110;9.372;2023-02-22T02:13:20;8.853846153846153;;;5.138461538461541;;
15557;SDS011;7880;50.110;9.372;2023-02-22T02:18:22;12.94615384615385;;;6.953846153846153;;
15557;SDS011;7880;50.110;9.372;2023-02-22T02:23:36;11.684615384615386;;;6.299999999999998;;
15557;SDS011;7880;50.110;9.372;2023-02-22T02:28:41;10.353846153846153;;;6.276923076923079;;
15557;SDS011;7880;50.110;9.372;2023-02-22T02:33:39;5.838461538461539;;;4.1000000000000005;;
15557;SDS011;7880;50.110;9.372;2023-02-22T02:38:45;6.200000000000002;;;4.06923076923077;;
15557;SDS011;7880;50.110;9.372;2023-02-22T02:43:46;6.161538461538461;;;4.1000000000000005;;
15557;SDS011;7880;50.110;9.372;2023-02-22T02:48:50;6.5230769230769265;;;3.7615384615384633;;
15557;SDS011;7880;50.110;9.372;2023-02-22T02:53:53;6.584615384615388;;;4.161538461538462;;
15557;SDS011;7880;50.110;9.372;2023-02-22T02:59:00;8.5;;;3.600000000000001;;
15557;SDS011;7880;50.110;9.372;2023-02-22T03:04:05;9.238461538461541;;;4.176923076923076;;
15557;SDS011;7880;50.110;9.372;2023-02-22T03:09:10;12.553846153846157;;;5.076923076923078;;
15557;SDS011;7880;50.110;9.372;2023-02-22T03:14:10;6.13846153846154;;;3.7000000000000006;;
15557;SDS011;7880;50.110;9.372;2023-02-22T03:19:16;7.738461538461538;;;4.200000000000001;;
15557;SDS011;7880;50.110;9.372;2023-02-22T03:22:44;5.753846153846153;;;4.1000000000000005;;
15557;SDS011;7880;50.110;9.372;2023-02-22T03:27:47;6.5;;;3.8769230769230774;;
15557;SDS011;7880;50.110;9.372;2023-02-22T03:32:51;6.269230769230769;;;3.7000000000000006;;
15557;SDS011;7880;50.110;9.372;2023-02-22T03:38:01;6.299999999999998;;;3.6384615384615397;;
15557;SDS011;7880;50.110;9.372;2023-02-22T03:43:04;5.523076923076925;;;3.5;;
15557;SDS011;7880;50.110;9.372;2023-02-22T03:48:16;7.0230769230769265;;;4.0;;
15557;SDS011;7880;50.110;9.372;2023-02-22T03:53:06;7.0230769230769265;;;4.061538461538462;;
15557;SDS011;7880;50.110;9.372;2023-02-22T03:58:20;8.0;;;3.899999999999999;;
15557;SDS011;7880;50.110;9.372;2023-02-22T04:03:32;8.046153846153846;;;3.8538461538461535;;
15557;SDS011;7880;50.110;9.372;2023-02-22T04:08:19;6.846153846153846;;;4.246153846153844;;
15557;SDS011;7880;50.110;9.372;2023-02-22T04:13:26;9.06153846153846;;;5.0;;
15557;SDS011;7880;50.110;9.372;2023-02-22T04:18:29;5.200000000000001;;;3.600000000000001;;
15557;SDS011;7880;50.110;9.372;2023-02-22T04:23:35;11.846153846153847;;;5.1692307692307695;;
15557;SDS011;7880;50.110;9.372;2023-02-22T04:28:36;7.2230769230769205;;;4.661538461538462;;
15557;SDS011;7880;50.110;9.372;2023-02-22T04:33:40;7.8230769230769255;;;4.823076923076923;;
15557;SDS011;7880;50.110;9.372;2023-02-22T04:38:44;8.400000000000002;;;4.338461538461538;;
15557;SDS011;7880;50.110;9.372;2023-02-22T04:43:47;6.038461538461537;;;4.338461538461538;;
15557;SDS011;7880;50.110;9.372;2023-02-22T04:48:50;6.4615384615384635;;;4.038461538461539;;
15557;SDS011;7880;50.110;9.372;2023-02-22T04:53:59;6.6923076923076925;;;3.7384615384615367;;
15557;SDS011;7880;50.110;9.372;2023-02-22T04:58:57;5.8769230769230765;;;4.038461538461539;;
15557;SDS011;7880;50.110;9.372;2023-02-22T05:04:01;9.338461538461535;;;4.338461538461538;;
15557;SDS011;7880;50.110;9.372;2023-02-22T05:09:05;6.299999999999998;;;4.1000000000000005;;
15557;SDS011;7880;50.110;9.372;2023-02-22T05:14:08;8.423076923076922;;;5.0;;
15557;SDS011;7880;50.110;9.372;2023-02-22T05:19:13;9.092307692307694;;;5.338461538461539;;
15557;SDS011;7880;50.110;9.372;2023-02-22T05:24:30;6.93076923076923;;;4.338461538461538;;
15557;SDS011;7880;50.110;9.372;2023-02-22T05:29:21;6.39230769230769;;;4.299999999999999;;
15557;SDS011;7880;50.110;9.372;2023-02-22T05:34:25;5.676923076923076;;;3.838461538461538;;
15557;SDS011;7880;50.110;9.372;2023-02-22T05:39:30;5.5;;;3.6384615384615397;;
15557;SDS011;7880;50.110;9.372;2023-02-22T05:44:37;7.515384615384615;;;3.776923076923076;;
15557;SDS011;7880;50.110;9.372;2023-02-22T05:49:40;5.453846153846154;;;3.6384615384615397;;
15557;SDS011;7880;50.110;9.372;2023-02-22T05:54:44;9.646153846153847;;;4.661538461538462;;
15557;SDS011;7880;50.110;9.372;2023-02-22T05:59:48;10.276923076923081;;;5.200000000000001;;
15557;SDS011;7880;50.110;9.372;2023-02-22T06:05:02;10.661538461538461;;;5.538461538461537;;
15557;SDS011;7880;50.110;9.372;2023-02-22T06:09:55;13.015384615384612;;;6.4769230769230735;;
15557;SDS011;7880;50.110;9.372;2023-02-22T06:14:59;9.815384615384618;;;6.338461538461539;;
15557;SDS011;7880;50.110;9.372;2023-02-22T06:20:02;9.853846153846156;;;6.0;;
15557;SDS011;7880;50.110;9.372;2023-02-22T06:25:06;6.9615384615384635;;;4.5;;
15557;SDS011;7880;50.110;9.372;2023-02-22T06:30:11;6.438461538461538;;;4.276923076923077;;
15557;SDS011;7880;50.110;9.372;2023-02-22T06:35:16;6.684615384615384;;;4.299999999999999;;
15557;SDS011;7880;50.110;9.372;2023-02-22T06:40:28;6.238461538461538;;;4.438461538461538;;
15557;SDS011;7880;50.110;9.372;2023-02-22T06:45:25;5.761538461538463;;;3.761538461538461;;
15557;SDS011;7880;50.110;9.372;2023-02-22T06:50:32;5.200000000000001;;;3.2999999999999994;;
15557;SDS011;7880;50.110;9.372;2023-02-22T06:55:33;5.46923076923077;;;3.7000000000000006;;
15557;SDS011;7880;50.110;9.372;2023-02-22T07:00:36;5.6;;;3.5;;
15557;SDS011;7880;50.110;9.372;2023-02-22T07:05:40;6.1;;;3.6769230769230763;;
15557;SDS011;7880;50.110;9.372;2023-02-22T07:10:51;6.4;;;4.0;;
15557;SDS011;7880;50.110;9.372;2023-02-22T07:15:48;7.1230769230769235;;;3.661538461538462;;
15557;SDS011;7880;50.110;9.372;2023-02-22T07:20:52;5.6;;;3.7615384615384633;;
15557;SDS011;7880;50.110;9.372;2023-02-22T07:25:58;6.715384615384618;;;3.576923076923078;;
15557;SDS011;7880;50.110;9.372;2023-02-22T07:31:04;6.153846153846155;;;3.6769230769230763;;
15557;SDS011;7880;50.110;9.372;2023-02-22T07:36:05;7.915384615384612;;;4.700000000000001;;
15557;SDS011;7880;50.110;9.372;2023-02-22T07:41:09;8.861538461538462;;;5.299999999999999;;
15557;SDS011;7880;50.110;9.372;2023-02-22T07:46:13;17.446153846153848;;;8.961538461538462;;
15557;SDS011;7880;50.110;9.372;2023-02-22T07:51:21;25.430769230769233;;;11.599999999999996;;
15557;SDS011;7880;50.110;9.372;2023-02-22T07:56:23;10.961538461538463;;;5.961538461538463;;
15557;SDS011;7880;50.110;9.372;2023-02-22T08:01:30;14.015384615384612;;;7.638461538461541;;
15557;SDS011;7880;50.110;9.372;2023-02-22T08:06:34;17.792307692307688;;;7.83846153846154;;
15557;SDS011;7880;50.110;9.372;2023-02-22T08:11:38;24.22307692307692;;;10.476923076923075;;
15557;SDS011;7880;50.110;9.372;2023-02-22T08:16:43;22.846153846153847;;;11.369230769230771;;
15557;SDS011;7880;50.110;9.372;2023-02-22T08:21:47;20.607692307692307;;;10.33076923076923;;
15557;SDS011;7880;50.110;9.372;2023-02-22T08:27:01;28.092307692307692;;;11.7;;
15557;SDS011;7880;50.110;9.372;2023-02-22T08:32:09;22.146153846153855;;;9.038461538461538;;
15557;SDS011;7880;50.110;9.372;2023-02-22T08:37:06;17.56923076923077;;;7.700000000000002;;
15557;SDS011;7880;50.110;9.372;2023-02-22T08:42:15;16.669230769230765;;;8.16153846153846;;
15557;SDS011;7880;50.110;9.372;2023-02-22T08:47:17;24.661538461538456;;;10.338461538461539;;
15557;SDS011;7880;50.110;9.372;2023-02-22T08:52:22;21.59230769230769;;;11.86153846153846;;
15557;SDS011;7880;50.110;9.372;2023-02-22T08:57:27;47.48461538461539;;;22.8923076923077;;
15557;SDS011;7880;50.110;9.372;2023-02-22T09:02:32;20.530769230769234;;;9.969230769230771;;
15557;SDS011;7880;50.110;9.372;2023-02-22T09:07:35;24.753846153846155;;;10.13076923076923;;
15557;SDS011;7880;50.110;9.372;2023-02-22T09:12:44;25.923076923076923;;;15.023076923076928;;
15557;SDS011;7880;50.110;9.372;2023-02-22T09:17:43;26.184615384615384;;;12.338461538461537;;
15557;SDS011;7880;50.110;9.372;2023-02-22T09:22:48;22.369230769230764;;;11.599999999999996;;
15557;SDS011;7880;50.110;9.372;2023-02-22T09:27:56;24.292307692307688;;;11.599999999999996;;
15557;SDS011;7880;50.110;9.372;2023-02-22T09:32:59;28.399999999999995;;;15.330769230769231;;
15557;SDS011;7880;50.110;9.372;2023-02-22T09:38:03;25.853846153846156;;;13.123076923076924;;
15557;SDS011;7880;50.110;9.372;2023-02-22T09:43:21;31.199999999999992;;;17.699999999999996;;
15557;SDS011;7880;50.110;9.372;2023-02-22T09:48:18;25.823076923076925;;;13.792307692307693;;
15557;SDS011;7880;50.110;9.372;2023-02-22T09:53:33;25.807692307692317;;;13.330769230769231;;
15557;SDS011;7880;50.110;9.372;2023-02-22T09:58:27;31.184615384615384;;;13.800000000000002;;
15557;SDS011;7880;50.110;9.372;2023-02-22T10:03:32;32.08461538461539;;;15.961538461538462;;
15557;SDS011;7880;50.110;9.372;2023-02-22T10:08:38;27.169230769230772;;;14.469230769230771;;
15557;SDS011;7880;50.110;9.372;2023-02-22T10:13:44;30.499999999999993;;;16.99230769230769;;
15557;SDS011;7880;50.110;9.372;2023-02-22T10:18:50;26.823076923076925;;;15.792307692307693;;
15557;SDS011;7880;50.110;9.372;2023-02-22T10:23:54;25.876923076923084;;;15.369230769230775;;
15557;SDS011;7880;50.110;9.372;2023-02-22T10:29:00;23.430769230769233;;;14.900000000000004;;
15557;SDS011;7880;50.110;9.372;2023-02-22T10:34:02;27.069230769230767;;;15.669230769230769;;
15557;SDS011;7880;50.110;9.372;2023-02-22T10:39:24;23.823076923076922;;;16.861538461538466;;
15557;SDS011;7880;50.110;9.372;2023-02-22T10:44:17;26.576923076923077;;;16.069230769230767;;
15557;SDS011;7880;50.110;9.372;2023-02-22T10:49:20;22.684615384615388;;;14.699999999999998;;
15557;SDS011;7880;50.110;9.372;2023-02-22T10:54:24;17.400000000000002;;;11.530769230769229;;
15557;SDS011;7880;50.110;9.372;2023-02-22T10:59:30;17.800000000000004;;;11.5;;
15557;SDS011;7880;50.110;9.372;2023-02-22T11:04:43;16.26153846153846;;;9.161538461538463;;
15557;SDS011;7880;50.110;9.372;2023-02-22T11:09:45;15.692307692307697;;;10.39230769230769;;
15557;SDS011;7880;50.110;9.372;2023-02-22T11:14:43;13.576923076923077;;;9.261538461538462;;
15557;SDS011;7880;50.110;9.372;2023-02-22T11:19:48;12.123076923076924;;;9.299999999999999;;
15557;SDS011;7880;50.110;9.372;2023-02-22T11:24:55;14.030769230769229;;;8.561538461538461;;
15557;SDS011;7880;50.110;9.372;2023-02-22T11:30:09;12.069230769230767;;;7.530769230769229;;
15557;SDS011;7880;50.110;9.372;2023-02-22T11:35:16;13.307692307692308;;;8.099999999999998;;
15557;SDS011;7880;50.110;9.372;2023-02-22T11:40:12;8.400000000000002;;;6.730769230769231;;
15557;SDS011;7880;50.110;9.372;2023-02-22T11:45:15;10.43846153846154;;;7.56923076923077;;
15557;SDS011;7880;50.110;9.372;2023-02-22T11:50:25;7.684615384615383;;;6.061538461538462;;
15557;SDS011;7880;50.110;9.372;2023-02-22T11:55:25;8.153846153846153;;;6.4;;
15557;SDS011;7880;50.110;9.372;2023-02-22T12:00:30;7.700000000000002;;;5.6;;
15557;SDS011;7880;50.110;9.372;2023-02-22T12:05:40;9.36153846153846;;;7.0;;
15557;SDS011;7880;50.110;9.372;2023-02-22T12:10:41;7.669230769230769;;;5.6692307692307695;;
15557;SDS011;7880;50.110;9.372;2023-02-22T12:15:50;8.376923076923076;;;5.876923076923076;;
15557;SDS011;7880;50.110;9.372;2023-02-22T12:20:50;6.93076923076923;;;5.43076923076923;;
15557;SDS011;7880;50.110;9.372;2023-02-22T12:25:59;6.469230769230771;;;4.861538461538462;;
15557;SDS011;7880;50.110;9.372;2023-02-22T12:31:04;6.838461538461539;;;5.46923076923077;;
15557;SDS011;7880;50.110;9.372;2023-02-22T12:36:07;6.938461538461538;;;5.0;;
15557;SDS011;7880;50.110;9.372;2023-02-22T12:41:10;5.630769230769232;;;4.869230769230769;;
15557;SDS011;7880;50.110;9.372;2023-02-22T12:46:15;7.130769230769232;;;4.93076923076923;;
15557;SDS011;7880;50.110;9.372;2023-02-22T12:51:29;7.084615384615385;;;4.323076923076923;;
15557;SDS011;7880;50.110;9.372;2023-02-22T12:56:28;7.0;;;4.430769230769231;;
15557;SDS011;7880;50.110;9.372;2023-02-22T13:01:31;5.06923076923077;;;3.899999999999999;;
15557;SDS011;7880;50.110;9.372;2023-02-22T13:06:42;7.299999999999998;;;4.299999999999999;;
15557;SDS011;7880;50.110;9.372;2023-02-22T13:11:41;6.13846153846154;;;4.5;;
15557;SDS011;7880;50.110;9.372;2023-02-22T13:16:46;5.130769230769232;;;4.200000000000001;;
15557;SDS011;7880;50.110;9.372;2023-02-22T13:27:39;9.638461538461538;;;5.0;;
15557;SDS011;7880;50.110;9.372;2023-02-22T13:31:22;5.3307692307692305;;;4.223076923076922;;
15557;SDS011;7880;50.110;9.372;2023-02-22T13:36:20;7.130769230769232;;;4.299999999999999;;
15557;SDS011;7880;50.110;9.372;2023-02-22T13:41:23;9.246153846153847;;;4.200000000000001;;
15557;SDS011;7880;50.110;9.372;2023-02-22T13:46:45;6.938461538461538;;;4.0;;
15557;SDS011;7880;50.110;9.372;2023-02-22T13:51:44;5.0;;;3.530769230769231;;
15557;SDS011;7880;50.110;9.372;2023-02-22T13:56:46;5.630769230769232;;;4.0;;
15557;SDS011;7880;50.110;9.372;2023-02-22T14:01:52;6.669230769230769;;;4.1000000000000005;;
15557;SDS011;7880;50.110;9.372;2023-02-22T14:06:55;5.06923076923077;;;3.7999999999999994;;
15557;SDS011;7880;50.110;9.372;2023-02-22T14:12:04;4.5;;;3.3307692307692305;;
15557;SDS011;7880;50.110;9.372;2023-02-22T14:17:21;7.130769230769232;;;4.16923076923077;;
15557;SDS011;7880;50.110;9.372;2023-02-22T14:22:07;7.10769230769231;;;3.600000000000001;;
15557;SDS011;7880;50.110;9.372;2023-02-22T14:27:16;4.869230769230769;;;3.869230769230768;;
15557;SDS011;7880;50.110;9.372;2023-02-22T14:32:30;4.830769230769231;;;3.7999999999999994;;
15557;SDS011;7880;50.110;9.372;2023-02-22T14:37:24;7.369230769230768;;;3.630769230769232;;
15557;SDS011;7880;50.110;9.372;2023-02-22T14:42:27;4.3999999999999995;;;3.7000000000000006;;
15557;SDS011;7880;50.110;9.372;2023-02-22T14:47:37;6.123076923076924;;;3.7307692307692295;;
15557;SDS011;7880;50.110;9.372;2023-02-22T14:52:35;6.407692307692309;;;4.06923076923077;;
15557;SDS011;7880;50.110;9.372;2023-02-22T14:57:42;3.969230769230769;;;3.100000000000001;;
15557;SDS011;7880;50.110;9.372;2023-02-22T15:02:44;5.384615384615385;;;3.6692307692307695;;
15557;SDS011;7880;50.110;9.372;2023-02-22T15:07:51;4.630769230769232;;;3.130769230769232;;
15557;SDS011;7880;50.110;9.372;2023-02-22T15:13:13;5.369230769230768;;;3.5;;
15557;SDS011;7880;50.110;9.372;2023-02-22T15:18:16;4.2615384615384615;;;3.292307692307692;;
15557;SDS011;7880;50.110;9.372;2023-02-22T15:23:05;4.5;;;3.2999999999999994;;
15557;SDS011;7880;50.110;9.372;2023-02-22T15:28:10;5.438461538461538;;;3.169230769230769;;
15557;SDS011;7880;50.110;9.372;2023-02-22T15:33:13;4.1923076923076925;;;3.100000000000001;;
15557;SDS011;7880;50.110;9.372;2023-02-22T15:38:16;4.0;;;3.0;;
15557;SDS011;7880;50.110;9.372;2023-02-22T15:43:31;5.707692307692307;;;3.7000000000000006;;
15557;SDS011;7880;50.110;9.372;2023-02-22T15:48:26;7.869230769230768;;;4.700000000000001;;
15557;SDS011;7880;50.110;9.372;2023-02-22T15:53:29;6.838461538461539;;;4.269230769230769;;
15557;SDS011;7880;50.110;9.372;2023-02-22T15:58:33;9.561538461538461;;;4.0307692307692315;;
15557;SDS011;7880;50.110;9.372;2023-02-22T16:03:44;5.269230769230769;;;2.5;;
15557;SDS011;7880;50.110;9.372;2023-02-22T16:08:43;6.4;;;3.2307692307692295;;
15557;SDS011;7880;50.110;9.372;2023-02-22T16:13:51;5.223076923076923;;;3.030769230769231;;
15557;SDS011;7880;50.110;9.372;2023-02-22T16:18:50;9.007692307692306;;;3.8307692307692305;;
15557;SDS011;7880;50.110;9.372;2023-02-22T16:23:54;6.838461538461539;;;3.5;;
15557;SDS011;7880;50.110;9.372;2023-02-22T16:28:59;6.207692307692307;;;3.7692307692307705;;
15557;SDS011;7880;50.110;9.372;2023-02-22T16:34:13;5.138461538461538;;;2.330769230769231;;
15557;SDS011;7880;50.110;9.372;2023-02-22T16:39:09;10.792307692307693;;;7.030769230769229;;
15557;SDS011;7880;50.110;9.372;2023-02-22T16:44:12;15.707692307692307;;;9.599999999999998;;
15557;SDS011;7880;50.110;9.372;2023-02-22T16:49:19;10.030769230769229;;;6.369230769230768;;
15557;SDS011;7880;50.110;9.372;2023-02-22T16:54:22;6.56923076923077;;;3.2;;
15557;SDS011;7880;50.110;9.372;2023-02-22T16:59:25;4.0307692307692315;;;2.93076923076923;;
15557;SDS011;7880;50.110;9.372;2023-02-22T17:04:34;7.630769230769232;;;4.730769230769231;;
15557;SDS011;7880;50.110;9.372;2023-02-22T17:09:35;11.400000000000004;;;6.561538461538462;;
15557;SDS011;7880;50.110;9.372;2023-02-22T17:14:45;11.33076923076923;;;6.661538461538461;;
15557;SDS011;7880;50.110;9.372;2023-02-22T17:19:54;10.89230769230769;;;7.830769230769231;;
15557;SDS011;7880;50.110;9.372;2023-02-22T17:24:54;11.930769230769233;;;8.36153846153846;;
15557;SDS011;7880;50.110;9.372;2023-02-22T17:30:01;5.1692307692307695;;;4.16923076923077;;
15557;SDS011;7880;50.110;9.372;2023-02-22T17:35:09;11.315384615384618;;;4.769230769230769;;
15557;SDS011;7880;50.110;9.372;2023-02-22T17:40:14;6.469230769230771;;;3.7307692307692295;;
15557;SDS011;7880;50.110;9.372;2023-02-22T17:45:13;4.538461538461538;;;3.169230769230769;;
15557;SDS011;7880;50.110;9.372;2023-02-22T17:50:16;5.038461538461539;;;4.200000000000001;;
15557;SDS011;7880;50.110;9.372;2023-02-22T17:55:20;18.66153846153846;;;11.400000000000004;;
15557;SDS011;7880;50.110;9.372;2023-02-22T18:00:33;21.6;;;11.86153846153846;;
15557;SDS011;7880;50.110;9.372;2023-02-22T18:05:29;28.77692307692307;;;14.661538461538463;;
15557;SDS011;7880;50.110;9.372;2023-02-22T18:10:34;33.93076923076922;;;16.146153846153844;;
15557;SDS011;7880;50.110;9.372;2023-02-22T18:15:39;26.184615384615388;;;14.246153846153842;;
15557;SDS011;7880;50.110;9.372;2023-02-22T18:20:44;42.81538461538461;;;25.23846153846155;;
15557;SDS011;7880;50.110;9.372;2023-02-22T18:25:48;39.269230769230774;;;23.330769230769228;;
15557;SDS011;7880;50.110;9.372;2023-02-22T18:30:58;23.792307692307688;;;14.830769230769231;;
15557;SDS011;7880;50.110;9.372;2023-02-22T18:35:23;24.576923076923077;;;14.099999999999996;;
15557;SDS011;7880;50.110;9.372;2023-02-22T18:40:28;26.00769230769231;;;15.699999999999998;;
15557;SDS011;7880;50.110;9.372;2023-02-22T18:45:31;15.938461538461542;;;10.5;;
15557;SDS011;7880;50.110;9.372;2023-02-22T18:50:36;14.85384615384615;;;9.230769230769234;;
15557;SDS011;7880;50.110;9.372;2023-02-22T18:55:45;16.407692307692304;;;9.169230769230769;;
15557;SDS011;7880;50.110;9.372;2023-02-22T19:00:48;9.523076923076925;;;7.36153846153846;;
15557;SDS011;7880;50.110;9.372;2023-02-22T19:05:49;10.107692307692306;;;6.323076923076922;;
15557;SDS011;7880;50.110;9.372;2023-02-22T19:11:00;15.77692307692308;;;11.099999999999996;;
15557;SDS011;7880;50.110;9.372;2023-02-22T19:15:56;19.938461538461542;;;12.599999999999996;;
15557;SDS011;7880;50.110;9.372;2023-02-22T19:21:01;19.36923076923077;;;13.461538461538462;;
15557;SDS011;7880;50.110;9.372;2023-02-22T19:26:05;14.423076923076918;;;10.63076923076923;;
15557;SDS011;7880;50.110;9.372;2023-02-22T19:31:11;21.23846153846154;;;13.430769230769233;;
15557;SDS011;7880;50.110;9.372;2023-02-22T19:36:12;16.376923076923074;;;10.569230769230769;;
15557;SDS011;7880;50.110;9.372;2023-02-22T19:41:18;14.63846153846154;;;8.900000000000002;;
15557;SDS011;7880;50.110;9.372;2023-02-22T19:46:20;10.938461538461542;;;7.461538461538462;;
15557;SDS011;7880;50.110;9.372;2023-02-22T19:51:27;13.061538461538458;;;8.030769230769229;;
15557;SDS011;7880;50.110;9.372;2023-02-22T19:56:30;39.276923076923076;;;19.430769230769233;;
15557;SDS011;7880;50.110;9.372;2023-02-22T20:01:35;25.98461538461538;;;14.630769230769225;;
15557;SDS011;7880;50.110;9.372;2023-02-22T20:06:43;15.038461538461538;;;9.730769230769234;;
15557;SDS011;7880;50.110;9.372;2023-02-22T20:11:43;31.74615384615384;;;18.46923076923077;;
15557;SDS011;7880;50.110;9.372;2023-02-22T20:16:47;23.800000000000008;;;15.030769230769229;;
15557;SDS011;7880;50.110;9.372;2023-02-22T20:21:55;24.169230769230772;;;14.438461538461542;;
15557;SDS011;7880;50.110;9.372;2023-02-22T20:26:58;26.23846153846155;;;15.430769230769233;;
15557;SDS011;7880;50.110;9.372;2023-02-22T20:32:02;16.23846153846154;;;9.400000000000002;;
15557;SDS011;7880;50.110;9.372;2023-02-22T20:37:13;11.50769230769231;;;7.900000000000001;;
15557;SDS011;7880;50.110;9.372;2023-02-22T20:42:14;13.869230769230775;;;8.46153846153846;;
15557;SDS011;7880;50.110;9.372;2023-02-22T20:47:16;10.63846153846154;;;7.0;;
15557;SDS011;7880;50.110;9.372;2023-02-22T20:52:20;14.261538461538464;;;7.692307692307694;;
15557;SDS011;7880;50.110;9.372;2023-02-22T20:57:26;15.192307692307692;;;9.13076923076923;;
15557;SDS011;7880;50.110;9.372;2023-02-22T21:02:28;13.738461538461536;;;6.799999999999998;;
15557;SDS011;7880;50.110;9.372;2023-02-22T21:07:32;13.369230769230775;;;8.299999999999999;;
15557;SDS011;7880;50.110;9.372;2023-02-22T21:12:36;14.238461538461536;;;8.599999999999998;;
15557;SDS011;7880;50.110;9.372;2023-02-22T21:17:39;17.315384615384612;;;10.676923076923073;;
15557;SDS011;7880;50.110;9.372;2023-02-22T21:22:50;14.615384615384615;;;9.161538461538463;;
15557;SDS011;7880;50.110;9.372;2023-02-22T21:27:53;23.33846153846154;;;12.400000000000004;;
15557;SDS011;7880;50.110;9.372;2023-02-22T21:32:55;21.199999999999996;;;12.8;;
15557;SDS011;7880;50.110;9.372;2023-02-22T21:38:04;36.31538461538462;;;19.623076923076923;;
15557;SDS011;7880;50.110;9.372;2023-02-22T21:43:03;38.07692307692307;;;18.03076923076923;;
15557;SDS011;7880;50.110;9.372;2023-02-22T21:48:08;29.96153846153847;;;16.161538461538463;;
15557;SDS011;7880;50.110;9.372;2023-02-22T21:53:11;20.130769230769225;;;12.400000000000004;;
15557;SDS011;7880;50.110;9.372;2023-02-22T21:58:15;20.346153846153847;;;11.538461538461538;;
15557;SDS011;7880;50.110;9.372;2023-02-22T22:03:20;20.33076923076923;;;11.261538461538464;;
15557;SDS011;7880;50.110;9.372;2023-02-22T22:08:24;18.207692307692305;;;10.099999999999998;;
15557;SDS011;7880;50.110;9.372;2023-02-22T22:13:27;17.82307692307692;;;10.06153846153846;;
15557;SDS011;7880;50.110;9.372;2023-02-22T22:18:31;16.96923076923077;;;10.13076923076923;;
15557;SDS011;7880;50.110;9.372;2023-02-22T22:23:46;12.530769230769229;;;8.061538461538463;;
15557;SDS011;7880;50.110;9.372;2023-02-22T22:28:41;15.338461538461537;;;7.961538461538459;;
15557;SDS011;7880;50.110;9.372;2023-02-22T22:33:47;13.576923076923082;;;8.069230769230769;;
15557;SDS011;7880;50.110;9.372;2023-02-22T22:38:51;13.476923076923072;;;6.730769230769231;;